PWSweather.com
Personal Weather Stations
Station Observations
WD4JKH
Forsyth, GA 31029

Forsyth, GA 31029

Lat: 33.033225, Lon: -83.927995

Elevation: 709

Station Type: Davis Vantage VUE

High Low Average
Temperature 75.2°F24.0°C 59.3°F15.2°C 64.6°F18.1°C
Dew Point 66.6°F19.2°C 55.8°F13.2°C 61.5°F16.4°C
Winds 7.2 mph 11.6 kmh Calm Calm 2.0 mph S3.2 kmh S
Wind Gusts 24.0 mph38.6 kmh 2.0 mph3.2 kmh 9.0 mph14.5 kmh
Humidity 97% 72% 90%
Pressure 30.04 in1017.3 mb 29.75 in1007.5 mb -
Precipitation 0.20 in5.1 mm - -
Hour Temp Dew Point Humidity Winds Wind Gusts Pressure Precip Precip Rate Daily Precip Total
12:01 AM 63.5°F17.5°C 55.9°F13.3°C 76% Calm Calm 7.0 mph11.3 kmh 30.04 in1017.3 mb 0.00 in0.0 mm 0.00 in0.0 mm 0.00 in0.0 mm
12:06 AM 63.4°F17.4°C 55.8°F13.2°C 76% 2.6 mph SSE4.2 kmh SSE 7.0 mph11.3 kmh 30.04 in1017.3 mb 0.00 in0.0 mm 0.00 in0.0 mm 0.00 in0.0 mm
12:11 AM 63.2°F17.3°C 56.0°F13.3°C 77% 1.3 mph SE2.1 kmh SE 7.0 mph11.3 kmh 30.04 in1017.3 mb 0.00 in0.0 mm 0.00 in0.0 mm 0.00 in0.0 mm
12:16 AM 63.0°F17.2°C 56.1°F13.4°C 78% 3.3 mph SE5.3 kmh SE 7.0 mph11.3 kmh 30.04 in1017.3 mb 0.00 in0.0 mm 0.00 in0.0 mm 0.00 in0.0 mm
12:21 AM 62.9°F17.2°C 56.4°F13.6°C 79% 1.7 mph S2.7 kmh S 7.0 mph11.3 kmh 30.03 in1016.9 mb 0.00 in0.0 mm 0.00 in0.0 mm 0.00 in0.0 mm
12:26 AM 62.8°F17.1°C 56.6°F13.7°C 80% 2.5 mph SE4.0 kmh SE 7.0 mph11.3 kmh 30.04 in1017.3 mb 0.00 in0.0 mm 0.00 in0.0 mm 0.00 in0.0 mm
12:31 AM 62.7°F17.1°C 56.8°F13.8°C 81% 4.9 mph SSE7.9 kmh SSE 8.0 mph12.9 kmh 30.04 in1017.3 mb 0.00 in0.0 mm 0.00 in0.0 mm 0.00 in0.0 mm
12:36 AM 62.5°F16.9°C 57.0°F13.9°C 82% 2.7 mph SSE4.3 kmh SSE 8.0 mph12.9 kmh 30.04 in1017.3 mb 0.00 in0.0 mm 0.00 in0.0 mm 0.00 in0.0 mm
12:41 AM 62.4°F16.9°C 56.9°F13.8°C 82% 2.2 mph SSE3.5 kmh SSE 8.0 mph12.9 kmh 30.04 in1017.3 mb 0.00 in0.0 mm 0.00 in0.0 mm 0.00 in0.0 mm
12:46 AM 62.2°F16.8°C 57.0°F13.9°C 83% 1.0 mph SSE1.6 kmh SSE 8.0 mph12.9 kmh 30.04 in1017.3 mb 0.00 in0.0 mm 0.00 in0.0 mm 0.00 in0.0 mm
12:51 AM 61.9°F16.6°C 57.0°F13.9°C 84% 3.0 mph SSW4.8 kmh SSW 8.0 mph12.9 kmh 30.04 in1017.3 mb 0.00 in0.0 mm 0.00 in0.0 mm 0.00 in0.0 mm
12:56 AM 61.7°F16.5°C 56.8°F13.8°C 84% 1.0 mph SSE1.6 kmh SSE 8.0 mph12.9 kmh 30.03 in1016.9 mb 0.00 in0.0 mm 0.00 in0.0 mm 0.00 in0.0 mm
01:01 AM 61.5°F16.4°C 57.0°F13.9°C 85% 1.0 mph SSW1.6 kmh SSW 6.0 mph9.7 kmh 30.03 in1016.9 mb 0.00 in0.0 mm 0.00 in0.0 mm 0.00 in0.0 mm
01:06 AM 61.3°F16.3°C 57.1°F13.9°C 86% Calm Calm 6.0 mph9.7 kmh 30.03 in1016.9 mb 0.00 in0.0 mm 0.00 in0.0 mm 0.00 in0.0 mm
01:11 AM 61.1°F16.2°C 56.9°F13.8°C 86% 1.0 mph SW1.6 kmh SW 6.0 mph9.7 kmh 30.03 in1016.9 mb 0.00 in0.0 mm 0.00 in0.0 mm 0.00 in0.0 mm
01:16 AM 60.9°F16.1°C 57.0°F13.9°C 87% Calm Calm 2.0 mph3.2 kmh 30.03 in1016.9 mb 0.00 in0.0 mm 0.00 in0.0 mm 0.00 in0.0 mm
01:21 AM 60.8°F16.0°C 56.9°F13.8°C 87% 1.0 mph SW1.6 kmh SW 2.0 mph3.2 kmh 30.03 in1016.9 mb 0.00 in0.0 mm 0.00 in0.0 mm 0.00 in0.0 mm
01:26 AM 60.7°F15.9°C 57.1°F13.9°C 88% 1.3 mph S2.1 kmh S 5.0 mph8.0 kmh 30.02 in1016.6 mb 0.00 in0.0 mm 0.00 in0.0 mm 0.00 in0.0 mm
01:31 AM 60.6°F15.9°C 57.3°F14.1°C 89% 1.0 mph S1.6 kmh S 5.0 mph8.0 kmh 30.02 in1016.6 mb 0.00 in0.0 mm 0.00 in0.0 mm 0.00 in0.0 mm
01:36 AM 60.6°F15.9°C 57.3°F14.1°C 89% 2.3 mph S3.7 kmh S 5.0 mph8.0 kmh 30.02 in1016.6 mb 0.00 in0.0 mm 0.00 in0.0 mm 0.00 in0.0 mm
01:41 AM 60.5°F15.8°C 57.2°F14.0°C 89% 1.2 mph S1.9 kmh S 5.0 mph8.0 kmh 30.02 in1016.6 mb 0.00 in0.0 mm 0.00 in0.0 mm 0.00 in0.0 mm
01:46 AM 60.5°F15.8°C 57.6°F14.2°C 90% 1.0 mph SE1.6 kmh SE 4.0 mph6.4 kmh 30.02 in1016.6 mb 0.00 in0.0 mm 0.00 in0.0 mm 0.00 in0.0 mm
01:51 AM 60.5°F15.8°C 57.6°F14.2°C 90% 2.2 mph SSE3.5 kmh SSE 6.0 mph9.7 kmh 30.01 in1016.3 mb 0.00 in0.0 mm 0.00 in0.0 mm 0.00 in0.0 mm
01:56 AM 60.5°F15.8°C 57.6°F14.2°C 90% 1.8 mph SE2.9 kmh SE 6.0 mph9.7 kmh 30.01 in1016.3 mb 0.00 in0.0 mm 0.00 in0.0 mm 0.00 in0.0 mm
02:01 AM 60.6°F15.9°C 57.6°F14.2°C 90% 2.9 mph SE4.7 kmh SE 8.0 mph12.9 kmh 30.00 in1015.9 mb 0.00 in0.0 mm 0.00 in0.0 mm 0.00 in0.0 mm
02:06 AM 60.7°F15.9°C 57.7°F14.3°C 90% 3.5 mph SE5.6 kmh SE 8.0 mph12.9 kmh 30.00 in1015.9 mb 0.00 in0.0 mm 0.00 in0.0 mm 0.00 in0.0 mm
02:11 AM 60.8°F16.0°C 58.1°F14.5°C 91% 4.0 mph SSE6.4 kmh SSE 10.0 mph16.1 kmh 30.00 in1015.9 mb 0.00 in0.0 mm 0.00 in0.0 mm 0.00 in0.0 mm
02:16 AM 60.9°F16.1°C 58.2°F14.6°C 91% 2.5 mph S4.0 kmh S 10.0 mph16.1 kmh 30.00 in1015.9 mb 0.00 in0.0 mm 0.00 in0.0 mm 0.00 in0.0 mm
02:20 AM 60.9°F16.1°C 58.2°F14.6°C 91% 2.3 mph S3.7 kmh S 10.0 mph16.1 kmh 30.00 in1015.9 mb 0.00 in0.0 mm 0.00 in0.0 mm 0.00 in0.0 mm
02:25 AM 60.9°F16.1°C 58.2°F14.6°C 91% 2.2 mph S3.5 kmh S 10.0 mph16.1 kmh 30.00 in1015.9 mb 0.00 in0.0 mm 0.00 in0.0 mm 0.00 in0.0 mm
02:30 AM 60.9°F16.1°C 58.2°F14.6°C 91% 1.4 mph S2.3 kmh S 9.0 mph14.5 kmh 30.00 in1015.9 mb 0.00 in0.0 mm 0.00 in0.0 mm 0.00 in0.0 mm
02:35 AM 60.8°F16.0°C 58.1°F14.5°C 91% 2.8 mph S4.5 kmh S 9.0 mph14.5 kmh 30.00 in1015.9 mb 0.00 in0.0 mm 0.00 in0.0 mm 0.00 in0.0 mm
02:40 AM 60.8°F16.0°C 58.1°F14.5°C 91% 2.5 mph SSE4.0 kmh SSE 9.0 mph14.5 kmh 30.00 in1015.9 mb 0.00 in0.0 mm 0.00 in0.0 mm 0.00 in0.0 mm
02:45 AM 60.6°F15.9°C 57.9°F14.4°C 91% 1.6 mph S2.6 kmh S 9.0 mph14.5 kmh 30.00 in1015.9 mb 0.00 in0.0 mm 0.00 in0.0 mm 0.00 in0.0 mm
02:50 AM 60.5°F15.8°C 58.1°F14.5°C 92% 2.3 mph SSW3.7 kmh SSW 8.0 mph12.9 kmh 30.00 in1015.9 mb 0.00 in0.0 mm 0.00 in0.0 mm 0.00 in0.0 mm
02:55 AM 60.5°F15.8°C 58.1°F14.5°C 92% 1.2 mph S1.9 kmh S 8.0 mph12.9 kmh 30.00 in1015.9 mb 0.00 in0.0 mm 0.00 in0.0 mm 0.00 in0.0 mm
03:00 AM 60.3°F15.7°C 57.9°F14.4°C 92% 1.7 mph S2.7 kmh S 8.0 mph12.9 kmh 29.99 in1015.6 mb 0.00 in0.0 mm 0.00 in0.0 mm 0.00 in0.0 mm
03:05 AM 60.3°F15.7°C 57.9°F14.4°C 92% 2.5 mph S4.0 kmh S 8.0 mph12.9 kmh 29.99 in1015.6 mb 0.00 in0.0 mm 0.00 in0.0 mm 0.00 in0.0 mm
03:10 AM 60.2°F15.7°C 58.1°F14.5°C 93% 1.7 mph SE2.7 kmh SE 7.0 mph11.3 kmh 29.99 in1015.6 mb 0.00 in0.0 mm 0.00 in0.0 mm 0.00 in0.0 mm
03:15 AM 60.1°F15.6°C 58.0°F14.4°C 93% 1.8 mph S2.9 kmh S 7.0 mph11.3 kmh 29.98 in1015.2 mb 0.00 in0.0 mm 0.00 in0.0 mm 0.00 in0.0 mm
03:20 AM 60.0°F15.6°C 57.9°F14.4°C 93% 1.9 mph SSE3.1 kmh SSE 7.0 mph11.3 kmh 29.98 in1015.2 mb 0.00 in0.0 mm 0.00 in0.0 mm 0.00 in0.0 mm
03:25 AM 60.0°F15.6°C 57.9°F14.4°C 93% 1.7 mph S2.7 kmh S 7.0 mph11.3 kmh 29.98 in1015.2 mb 0.00 in0.0 mm 0.00 in0.0 mm 0.00 in0.0 mm
03:30 AM 60.0°F15.6°C 58.0°F14.4°C 93% 1.9 mph S3.1 kmh S 7.0 mph11.3 kmh 29.98 in1015.2 mb 0.00 in0.0 mm 0.00 in0.0 mm 0.00 in0.0 mm
03:35 AM 59.9°F15.5°C 58.2°F14.6°C 94% 2.2 mph SSE3.5 kmh SSE 6.0 mph9.7 kmh 29.97 in1014.9 mb 0.00 in0.0 mm 0.00 in0.0 mm 0.00 in0.0 mm
03:40 AM 60.0°F15.6°C 58.3°F14.6°C 94% 2.0 mph SSE3.2 kmh SSE 6.0 mph9.7 kmh 29.97 in1014.9 mb 0.00 in0.0 mm 0.00 in0.0 mm 0.00 in0.0 mm
03:45 AM 60.0°F15.6°C 58.3°F14.6°C 94% 2.2 mph SSE3.5 kmh SSE 6.0 mph9.7 kmh 29.97 in1014.9 mb 0.00 in0.0 mm 0.00 in0.0 mm 0.00 in0.0 mm
03:50 AM 60.0°F15.6°C 58.3°F14.6°C 94% 1.9 mph SSE3.1 kmh SSE 6.0 mph9.7 kmh 29.97 in1014.9 mb 0.00 in0.0 mm 0.00 in0.0 mm 0.00 in0.0 mm
03:55 AM 60.1°F15.6°C 58.4°F14.7°C 94% 2.3 mph SE3.7 kmh SE 6.0 mph9.7 kmh 29.96 in1014.6 mb 0.00 in0.0 mm 0.00 in0.0 mm 0.00 in0.0 mm
04:00 AM 60.1°F15.6°C 58.4°F14.7°C 94% 1.6 mph SSE2.6 kmh SSE 6.0 mph9.7 kmh 29.96 in1014.6 mb 0.00 in0.0 mm 0.00 in0.0 mm 0.00 in0.0 mm
04:05 AM 60.1°F15.6°C 58.3°F14.6°C 94% 2.1 mph SSE3.4 kmh SSE 6.0 mph9.7 kmh 29.96 in1014.6 mb 0.00 in0.0 mm 0.00 in0.0 mm 0.00 in0.0 mm
04:10 AM 60.1°F15.6°C 58.3°F14.6°C 94% 2.9 mph SSE4.7 kmh SSE 6.0 mph9.7 kmh 29.96 in1014.6 mb 0.00 in0.0 mm 0.00 in0.0 mm 0.00 in0.0 mm
04:15 AM 60.1°F15.6°C 58.3°F14.6°C 94% 2.3 mph S3.7 kmh S 7.0 mph11.3 kmh 29.96 in1014.6 mb 0.00 in0.0 mm 0.00 in0.0 mm 0.00 in0.0 mm
04:20 AM 60.1°F15.6°C 58.3°F14.6°C 94% 1.5 mph SSE2.4 kmh SSE 7.0 mph11.3 kmh 29.95 in1014.2 mb 0.00 in0.0 mm 0.00 in0.0 mm 0.00 in0.0 mm
04:25 AM 60.1°F15.6°C 58.3°F14.6°C 94% 3.2 mph SE5.1 kmh SE 7.0 mph11.3 kmh 29.95 in1014.2 mb 0.00 in0.0 mm 0.00 in0.0 mm 0.00 in0.0 mm
04:30 AM 60.1°F15.6°C 58.3°F14.6°C 94% 3.1 mph S5.0 kmh S 9.0 mph14.5 kmh 29.95 in1014.2 mb 0.00 in0.0 mm 0.00 in0.0 mm 0.00 in0.0 mm
04:35 AM 60.1°F15.6°C 58.3°F14.6°C 94% 3.0 mph SSE4.8 kmh SSE 9.0 mph14.5 kmh 29.95 in1014.2 mb 0.00 in0.0 mm 0.00 in0.0 mm 0.00 in0.0 mm
04:40 AM 60.2°F15.7°C 58.4°F14.7°C 94% 2.6 mph SSE4.2 kmh SSE 9.0 mph14.5 kmh 29.94 in1013.9 mb 0.00 in0.0 mm 0.00 in0.0 mm 0.00 in0.0 mm
04:45 AM 60.3°F15.7°C 58.5°F14.7°C 94% 2.7 mph SE4.3 kmh SE 9.0 mph14.5 kmh 29.94 in1013.9 mb 0.00 in0.0 mm 0.00 in0.0 mm 0.00 in0.0 mm
04:50 AM 60.3°F15.7°C 58.5°F14.7°C 94% 2.2 mph SSE3.5 kmh SSE 9.0 mph14.5 kmh 29.95 in1014.2 mb 0.00 in0.0 mm 0.00 in0.0 mm 0.00 in0.0 mm
04:55 AM 60.3°F15.7°C 58.5°F14.7°C 94% 3.1 mph SE5.0 kmh SE 9.0 mph14.5 kmh 29.95 in1014.2 mb 0.00 in0.0 mm 0.00 in0.0 mm 0.00 in0.0 mm
05:00 AM 60.3°F15.7°C 58.5°F14.7°C 94% 1.5 mph S2.4 kmh S 9.0 mph14.5 kmh 29.95 in1014.2 mb 0.00 in0.0 mm 0.00 in0.0 mm 0.00 in0.0 mm
05:05 AM 60.3°F15.7°C 58.5°F14.7°C 94% 1.5 mph SSE2.4 kmh SSE 9.0 mph14.5 kmh 29.95 in1014.2 mb 0.00 in0.0 mm 0.00 in0.0 mm 0.00 in0.0 mm
05:10 AM 60.2°F15.7°C 58.4°F14.7°C 94% 2.6 mph SE4.2 kmh SE 9.0 mph14.5 kmh 29.95 in1014.2 mb 0.00 in0.0 mm 0.00 in0.0 mm 0.00 in0.0 mm
05:15 AM 60.2°F15.7°C 58.4°F14.7°C 94% 2.9 mph SSE4.7 kmh SSE 7.0 mph11.3 kmh 29.94 in1013.9 mb 0.00 in0.0 mm 0.00 in0.0 mm 0.00 in0.0 mm
05:20 AM 60.1°F15.6°C 58.3°F14.6°C 94% 2.6 mph SSE4.2 kmh SSE 7.0 mph11.3 kmh 29.94 in1013.9 mb 0.00 in0.0 mm 0.00 in0.0 mm 0.00 in0.0 mm
05:25 AM 60.1°F15.6°C 58.6°F14.8°C 95% 3.1 mph SSE5.0 kmh SSE 10.0 mph16.1 kmh 29.94 in1013.9 mb 0.00 in0.0 mm 0.00 in0.0 mm 0.00 in0.0 mm
05:30 AM 60.0°F15.6°C 58.2°F14.6°C 94% 2.3 mph SE3.7 kmh SE 10.0 mph16.1 kmh 29.94 in1013.9 mb 0.00 in0.0 mm 0.00 in0.0 mm 0.00 in0.0 mm
05:35 AM 60.0°F15.6°C 58.2°F14.6°C 94% 2.1 mph SSE3.4 kmh SSE 10.0 mph16.1 kmh 29.94 in1013.9 mb 0.00 in0.0 mm 0.00 in0.0 mm 0.00 in0.0 mm
05:40 AM 59.9°F15.5°C 58.5°F14.7°C 95% 2.4 mph SSE3.9 kmh SSE 10.0 mph16.1 kmh 29.94 in1013.9 mb 0.00 in0.0 mm 0.00 in0.0 mm 0.00 in0.0 mm
05:45 AM 59.8°F15.4°C 58.4°F14.7°C 95% 2.1 mph S3.4 kmh S 7.0 mph11.3 kmh 29.94 in1013.9 mb 0.00 in0.0 mm 0.00 in0.0 mm 0.00 in0.0 mm
05:50 AM 59.7°F15.4°C 58.3°F14.6°C 95% 1.7 mph SE2.7 kmh SE 7.0 mph11.3 kmh 29.94 in1013.9 mb 0.00 in0.0 mm 0.00 in0.0 mm 0.00 in0.0 mm
05:55 AM 59.6°F15.3°C 58.2°F14.6°C 95% 2.3 mph SE3.7 kmh SE 8.0 mph12.9 kmh 29.94 in1013.9 mb 0.00 in0.0 mm 0.00 in0.0 mm 0.00 in0.0 mm
06:00 AM 59.6°F15.3°C 58.2°F14.6°C 95% 1.7 mph S2.7 kmh S 8.0 mph12.9 kmh 29.93 in1013.5 mb 0.00 in0.0 mm 0.00 in0.0 mm 0.00 in0.0 mm
06:05 AM 59.5°F15.3°C 58.1°F14.5°C 95% 1.5 mph SSE2.4 kmh SSE 8.0 mph12.9 kmh 29.94 in1013.9 mb 0.00 in0.0 mm 0.00 in0.0 mm 0.00 in0.0 mm
06:10 AM 59.4°F15.2°C 58.0°F14.4°C 95% 2.6 mph SSE4.2 kmh SSE 8.0 mph12.9 kmh 29.93 in1013.5 mb 0.00 in0.0 mm 0.00 in0.0 mm 0.00 in0.0 mm
06:15 AM 59.4°F15.2°C 58.0°F14.4°C 95% 2.4 mph S3.9 kmh S 6.0 mph9.7 kmh 29.93 in1013.5 mb 0.00 in0.0 mm 0.00 in0.0 mm 0.00 in0.0 mm
06:20 AM 59.3°F15.2°C 57.8°F14.3°C 95% 1.6 mph SSE2.6 kmh SSE 6.0 mph9.7 kmh 29.93 in1013.5 mb 0.00 in0.0 mm 0.00 in0.0 mm 0.00 in0.0 mm
06:25 AM 59.4°F15.2°C 57.9°F14.4°C 95% 2.0 mph SE3.2 kmh SE 6.0 mph9.7 kmh 29.93 in1013.5 mb 0.00 in0.0 mm 0.00 in0.0 mm 0.00 in0.0 mm
06:30 AM 59.3°F15.2°C 57.8°F14.3°C 95% 2.6 mph SSE4.2 kmh SSE 6.0 mph9.7 kmh 29.92 in1013.2 mb 0.00 in0.0 mm 0.00 in0.0 mm 0.00 in0.0 mm
06:35 AM 59.4°F15.2°C 57.9°F14.4°C 95% 1.7 mph SE2.7 kmh SE 6.0 mph9.7 kmh 29.92 in1013.2 mb 0.00 in0.0 mm 0.00 in0.0 mm 0.00 in0.0 mm
06:40 AM 59.4°F15.2°C 57.9°F14.4°C 95% 2.7 mph SSE4.3 kmh SSE 6.0 mph9.7 kmh 29.92 in1013.2 mb 0.00 in0.0 mm 0.00 in0.0 mm 0.00 in0.0 mm
06:45 AM 59.5°F15.3°C 58.0°F14.4°C 95% 2.4 mph SE3.9 kmh SE 6.0 mph9.7 kmh 29.92 in1013.2 mb 0.00 in0.0 mm 0.00 in0.0 mm 0.00 in0.0 mm
06:50 AM 59.6°F15.3°C 58.1°F14.5°C 95% 1.9 mph SE3.1 kmh SE 6.0 mph9.7 kmh 29.92 in1013.2 mb 0.00 in0.0 mm 0.00 in0.0 mm 0.00 in0.0 mm
06:55 AM 59.6°F15.3°C 58.1°F14.5°C 95% 1.7 mph SSE2.7 kmh SSE 6.0 mph9.7 kmh 29.92 in1013.2 mb 0.00 in0.0 mm 0.00 in0.0 mm 0.00 in0.0 mm
07:00 AM 59.6°F15.3°C 58.1°F14.5°C 95% 1.8 mph SSE2.9 kmh SSE 6.0 mph9.7 kmh 29.92 in1013.2 mb 0.00 in0.0 mm 0.00 in0.0 mm 0.00 in0.0 mm
07:05 AM 59.5°F15.3°C 58.0°F14.4°C 95% 2.5 mph SE4.0 kmh SE 6.0 mph9.7 kmh 29.92 in1013.2 mb 0.00 in0.0 mm 0.00 in0.0 mm 0.00 in0.0 mm
07:10 AM 59.5°F15.3°C 58.0°F14.4°C 95% 2.6 mph SE4.2 kmh SE 6.0 mph9.7 kmh 29.92 in1013.2 mb 0.00 in0.0 mm 0.00 in0.0 mm 0.00 in0.0 mm
07:15 AM 59.8°F15.4°C 58.3°F14.6°C 95% 2.0 mph SE3.2 kmh SE 6.0 mph9.7 kmh 29.92 in1013.2 mb 0.00 in0.0 mm 0.00 in0.0 mm 0.00 in0.0 mm
07:20 AM 59.9°F15.5°C 58.4°F14.7°C 95% 2.3 mph SSE3.7 kmh SSE 6.0 mph9.7 kmh 29.92 in1013.2 mb 0.00 in0.0 mm 0.00 in0.0 mm 0.00 in0.0 mm
07:25 AM 59.9°F15.5°C 58.4°F14.7°C 95% 2.5 mph SE4.0 kmh SE 6.0 mph9.7 kmh 29.92 in1013.2 mb 0.00 in0.0 mm 0.00 in0.0 mm 0.00 in0.0 mm
07:30 AM 60.0°F15.6°C 58.5°F14.7°C 95% 2.3 mph SSE3.7 kmh SSE 6.0 mph9.7 kmh 29.92 in1013.2 mb 0.00 in0.0 mm 0.00 in0.0 mm 0.00 in0.0 mm
07:35 AM 60.0°F15.6°C 58.2°F14.6°C 94% 2.4 mph SE3.9 kmh SE 8.0 mph12.9 kmh 29.92 in1013.2 mb 0.00 in0.0 mm 0.00 in0.0 mm 0.00 in0.0 mm
07:40 AM 60.1°F15.6°C 58.3°F14.6°C 94% 1.6 mph S2.6 kmh S 8.0 mph12.9 kmh 29.92 in1013.2 mb 0.00 in0.0 mm 0.00 in0.0 mm 0.00 in0.0 mm
07:45 AM 60.2°F15.7°C 58.4°F14.7°C 94% 2.5 mph S4.0 kmh S 8.0 mph12.9 kmh 29.92 in1013.2 mb 0.00 in0.0 mm 0.00 in0.0 mm 0.00 in0.0 mm
07:50 AM 60.4°F15.8°C 58.6°F14.8°C 94% 2.6 mph SSE4.2 kmh SSE 10.0 mph16.1 kmh 29.92 in1013.2 mb 0.00 in0.0 mm 0.00 in0.0 mm 0.00 in0.0 mm
07:55 AM 60.6°F15.9°C 58.9°F14.9°C 94% 3.1 mph SE5.0 kmh SE 10.0 mph16.1 kmh 29.92 in1013.2 mb 0.00 in0.0 mm 0.00 in0.0 mm 0.00 in0.0 mm
08:00 AM 60.8°F16.0°C 59.1°F15.1°C 94% 1.9 mph S3.1 kmh S 10.0 mph16.1 kmh 29.92 in1013.2 mb 0.00 in0.0 mm 0.00 in0.0 mm 0.00 in0.0 mm
08:05 AM 60.9°F16.1°C 58.9°F14.9°C 93% 2.1 mph SSE3.4 kmh SSE 10.0 mph16.1 kmh 29.93 in1013.5 mb 0.00 in0.0 mm 0.00 in0.0 mm 0.00 in0.0 mm
08:10 AM 60.9°F16.1°C 58.8°F14.9°C 93% 1.1 mph SSE1.8 kmh SSE 8.0 mph12.9 kmh 29.93 in1013.5 mb 0.00 in0.0 mm 0.00 in0.0 mm 0.00 in0.0 mm
08:15 AM 61.0°F16.1°C 58.9°F14.9°C 93% 1.7 mph SSE2.7 kmh SSE 7.0 mph11.3 kmh 29.93 in1013.5 mb 0.00 in0.0 mm 0.00 in0.0 mm 0.00 in0.0 mm
08:19 AM 61.2°F16.2°C 59.1°F15.1°C 93% 1.8 mph SSE2.9 kmh SSE 6.0 mph9.7 kmh 29.93 in1013.5 mb 0.00 in0.0 mm 0.00 in0.0 mm 0.00 in0.0 mm
08:24 AM 61.5°F16.4°C 59.4°F15.2°C 93% 2.1 mph S3.4 kmh S 8.0 mph12.9 kmh 29.92 in1013.2 mb 0.00 in0.0 mm 0.00 in0.0 mm 0.00 in0.0 mm
08:29 AM 62.0°F16.7°C 59.6°F15.3°C 92% 2.0 mph S3.2 kmh S 8.0 mph12.9 kmh 29.93 in1013.5 mb 0.00 in0.0 mm 0.00 in0.0 mm 0.00 in0.0 mm
08:34 AM 62.5°F16.9°C 59.8°F15.4°C 91% 2.7 mph S4.3 kmh S 8.0 mph12.9 kmh 29.92 in1013.2 mb 0.00 in0.0 mm 0.00 in0.0 mm 0.00 in0.0 mm
08:39 AM 62.8°F17.1°C 59.8°F15.4°C 90% 4.2 mph S6.8 kmh S 9.0 mph14.5 kmh 29.92 in1013.2 mb 0.00 in0.0 mm 0.00 in0.0 mm 0.00 in0.0 mm
08:44 AM 63.2°F17.3°C 60.2°F15.7°C 90% 2.2 mph SSE3.5 kmh SSE 9.0 mph14.5 kmh 29.92 in1013.2 mb 0.00 in0.0 mm 0.00 in0.0 mm 0.00 in0.0 mm
08:49 AM 63.8°F17.7°C 60.5°F15.8°C 89% 3.5 mph S5.6 kmh S 10.0 mph16.1 kmh 29.92 in1013.2 mb 0.00 in0.0 mm 0.00 in0.0 mm 0.00 in0.0 mm
08:54 AM 64.2°F17.9°C 60.6°F15.9°C 88% 3.3 mph S5.3 kmh S 12.0 mph19.3 kmh 29.92 in1013.2 mb 0.00 in0.0 mm 0.00 in0.0 mm 0.00 in0.0 mm
08:59 AM 64.5°F18.1°C 60.9°F16.1°C 88% 3.0 mph S4.8 kmh S 12.0 mph19.3 kmh 29.92 in1013.2 mb 0.00 in0.0 mm 0.00 in0.0 mm 0.00 in0.0 mm
09:04 AM 64.9°F18.3°C 60.9°F16.1°C 87% 3.5 mph S5.6 kmh S 12.0 mph19.3 kmh 29.92 in1013.2 mb 0.00 in0.0 mm 0.00 in0.0 mm 0.00 in0.0 mm
09:09 AM 65.1°F18.4°C 61.1°F16.2°C 87% 2.6 mph SW4.2 kmh SW 11.0 mph17.7 kmh 29.92 in1013.2 mb 0.00 in0.0 mm 0.00 in0.0 mm 0.00 in0.0 mm
09:14 AM 65.4°F18.6°C 61.4°F16.3°C 87% 2.3 mph SSE3.7 kmh SSE 8.0 mph12.9 kmh 29.92 in1013.2 mb 0.00 in0.0 mm 0.00 in0.0 mm 0.00 in0.0 mm
09:19 AM 65.6°F18.7°C 61.6°F16.4°C 87% 1.8 mph SSW2.9 kmh SSW 10.0 mph16.1 kmh 29.92 in1013.2 mb 0.00 in0.0 mm 0.00 in0.0 mm 0.00 in0.0 mm
09:24 AM 66.0°F18.9°C 61.7°F16.5°C 86% 3.0 mph S4.8 kmh S 10.0 mph16.1 kmh 29.92 in1013.2 mb 0.00 in0.0 mm 0.00 in0.0 mm 0.00 in0.0 mm
09:29 AM 66.4°F19.1°C 62.1°F16.7°C 86% 1.9 mph SE3.1 kmh SE 10.0 mph16.1 kmh 29.91 in1012.9 mb 0.00 in0.0 mm 0.00 in0.0 mm 0.00 in0.0 mm
09:34 AM 66.9°F19.4°C 62.6°F17.0°C 86% 1.6 mph S2.6 kmh S 10.0 mph16.1 kmh 29.91 in1012.9 mb 0.00 in0.0 mm 0.00 in0.0 mm 0.00 in0.0 mm
09:39 AM 67.6°F19.8°C 63.0°F17.2°C 85% 2.7 mph S4.3 kmh S 10.0 mph16.1 kmh 29.91 in1012.9 mb 0.00 in0.0 mm 0.00 in0.0 mm 0.00 in0.0 mm
09:44 AM 68.0°F20.0°C 63.0°F17.2°C 84% 3.1 mph S5.0 kmh S 10.0 mph16.1 kmh 29.91 in1012.9 mb 0.00 in0.0 mm 0.00 in0.0 mm 0.00 in0.0 mm
09:49 AM 68.5°F20.3°C 63.2°F17.3°C 83% 1.9 mph SW3.1 kmh SW 10.0 mph16.1 kmh 29.91 in1012.9 mb 0.00 in0.0 mm 0.00 in0.0 mm 0.00 in0.0 mm
09:54 AM 68.8°F20.4°C 63.5°F17.5°C 83% 1.6 mph SSW2.6 kmh SSW 10.0 mph16.1 kmh 29.92 in1013.2 mb 0.00 in0.0 mm 0.00 in0.0 mm 0.00 in0.0 mm
09:59 AM 68.9°F20.5°C 63.2°F17.3°C 82% 3.7 mph S6.0 kmh S 10.0 mph16.1 kmh 29.91 in1012.9 mb 0.00 in0.0 mm 0.00 in0.0 mm 0.00 in0.0 mm
10:04 AM 68.9°F20.5°C 63.2°F17.3°C 82% 1.3 mph SW2.1 kmh SW 9.0 mph14.5 kmh 29.91 in1012.9 mb 0.00 in0.0 mm 0.00 in0.0 mm 0.00 in0.0 mm
10:09 AM 69.0°F20.6°C 63.3°F17.4°C 82% 1.3 mph SE2.1 kmh SE 9.0 mph14.5 kmh 29.91 in1012.9 mb 0.00 in0.0 mm 0.00 in0.0 mm 0.00 in0.0 mm
10:14 AM 69.1°F20.6°C 63.4°F17.4°C 82% 1.5 mph SSW2.4 kmh SSW 9.0 mph14.5 kmh 29.91 in1012.9 mb 0.00 in0.0 mm 0.00 in0.0 mm 0.00 in0.0 mm
10:19 AM 69.3°F20.7°C 64.0°F17.8°C 83% 3.5 mph S5.6 kmh S 9.0 mph14.5 kmh 29.91 in1012.9 mb 0.00 in0.0 mm 0.00 in0.0 mm 0.00 in0.0 mm
10:24 AM 69.6°F20.9°C 64.3°F17.9°C 83% Calm Calm 9.0 mph14.5 kmh 29.91 in1012.9 mb 0.00 in0.0 mm 0.00 in0.0 mm 0.00 in0.0 mm
10:29 AM 70.1°F21.2°C 64.4°F18.0°C 82% 3.5 mph S5.6 kmh S 9.0 mph14.5 kmh 29.90 in1012.5 mb 0.00 in0.0 mm 0.00 in0.0 mm 0.00 in0.0 mm
10:34 AM 70.3°F21.3°C 64.3°F17.9°C 81% 2.5 mph S4.0 kmh S 9.0 mph14.5 kmh 29.90 in1012.5 mb 0.00 in0.0 mm 0.00 in0.0 mm 0.00 in0.0 mm
10:39 AM 70.7°F21.5°C 64.6°F18.1°C 81% 3.1 mph SE5.0 kmh SE 9.0 mph14.5 kmh 29.90 in1012.5 mb 0.00 in0.0 mm 0.00 in0.0 mm 0.00 in0.0 mm
10:44 AM 70.9°F21.6°C 64.4°F18.0°C 80% 2.1 mph SSE3.4 kmh SSE 10.0 mph16.1 kmh 29.90 in1012.5 mb 0.00 in0.0 mm 0.00 in0.0 mm 0.00 in0.0 mm
10:49 AM 71.1°F21.7°C 64.6°F18.1°C 80% 1.3 mph SW2.1 kmh SW 10.0 mph16.1 kmh 29.90 in1012.5 mb 0.00 in0.0 mm 0.00 in0.0 mm 0.00 in0.0 mm
10:54 AM 71.3°F21.8°C 64.8°F18.2°C 80% 3.2 mph S5.1 kmh S 11.0 mph17.7 kmh 29.89 in1012.2 mb 0.00 in0.0 mm 0.00 in0.0 mm 0.00 in0.0 mm
10:59 AM 71.5°F21.9°C 65.0°F18.3°C 80% 1.0 mph S1.6 kmh S 11.0 mph17.7 kmh 29.89 in1012.2 mb 0.00 in0.0 mm 0.00 in0.0 mm 0.00 in0.0 mm
11:04 AM 71.5°F21.9°C 64.6°F18.1°C 79% 3.2 mph S5.1 kmh S 11.0 mph17.7 kmh 29.88 in1011.9 mb 0.00 in0.0 mm 0.00 in0.0 mm 0.00 in0.0 mm
11:09 AM 71.5°F21.9°C 65.0°F18.3°C 80% 4.5 mph SSE7.2 kmh SSE 11.0 mph17.7 kmh 29.88 in1011.9 mb 0.00 in0.0 mm 0.00 in0.0 mm 0.00 in0.0 mm
11:14 AM 71.6°F22.0°C 65.1°F18.4°C 80% 2.2 mph SE3.5 kmh SE 9.0 mph14.5 kmh 29.88 in1011.9 mb 0.00 in0.0 mm 0.00 in0.0 mm 0.00 in0.0 mm
11:19 AM 71.7°F22.1°C 65.3°F18.5°C 80% 4.1 mph S6.6 kmh S 10.0 mph16.1 kmh 29.87 in1011.5 mb 0.00 in0.0 mm 0.00 in0.0 mm 0.00 in0.0 mm
11:24 AM 71.8°F22.1°C 64.9°F18.3°C 79% 2.9 mph SW4.7 kmh SW 13.0 mph20.9 kmh 29.87 in1011.5 mb 0.00 in0.0 mm 0.00 in0.0 mm 0.00 in0.0 mm
11:29 AM 72.2°F22.3°C 65.4°F18.6°C 79% 6.5 mph SSE10.5 kmh SSE 13.0 mph20.9 kmh 29.86 in1011.2 mb 0.00 in0.0 mm 0.00 in0.0 mm 0.00 in0.0 mm
11:34 AM 72.7°F22.6°C 66.3°F19.1°C 80% 1.8 mph S2.9 kmh S 13.0 mph20.9 kmh 29.86 in1011.2 mb 0.00 in0.0 mm 0.00 in0.0 mm 0.00 in0.0 mm
11:39 AM 73.7°F23.2°C 66.2°F19.0°C 77% 1.0 mph WSW1.6 kmh WSW 13.0 mph20.9 kmh 29.85 in1010.8 mb 0.00 in0.0 mm 0.00 in0.0 mm 0.00 in0.0 mm
11:44 AM 74.3°F23.5°C 66.0°F18.9°C 75% 4.4 mph S7.1 kmh S 13.0 mph20.9 kmh 29.85 in1010.8 mb 0.00 in0.0 mm 0.00 in0.0 mm 0.00 in0.0 mm
11:49 AM 74.4°F23.6°C 66.1°F18.9°C 75% 2.6 mph SW4.2 kmh SW 13.0 mph20.9 kmh 29.85 in1010.8 mb 0.00 in0.0 mm 0.00 in0.0 mm 0.00 in0.0 mm
11:54 AM 74.1°F23.4°C 65.8°F18.8°C 75% 4.0 mph SSW6.4 kmh SSW 14.0 mph22.5 kmh 29.85 in1010.8 mb 0.00 in0.0 mm 0.00 in0.0 mm 0.00 in0.0 mm
11:59 AM 73.8°F23.2°C 65.5°F18.6°C 75% 3.8 mph S6.1 kmh S 14.0 mph22.5 kmh 29.85 in1010.8 mb 0.00 in0.0 mm 0.00 in0.0 mm 0.00 in0.0 mm
12:04 PM 73.5°F23.1°C 65.6°F18.7°C 76% 2.7 mph SSE4.3 kmh SSE 14.0 mph22.5 kmh 29.85 in1010.8 mb 0.00 in0.0 mm 0.00 in0.0 mm 0.00 in0.0 mm
12:09 PM 73.5°F23.1°C 66.0°F18.9°C 77% 3.6 mph SE5.8 kmh SE 14.0 mph22.5 kmh 29.85 in1010.8 mb 0.00 in0.0 mm 0.00 in0.0 mm 0.00 in0.0 mm
12:14 PM 73.5°F23.1°C 65.6°F18.7°C 76% 4.3 mph SSE6.9 kmh SSE 12.0 mph19.3 kmh 29.85 in1010.8 mb 0.00 in0.0 mm 0.00 in0.0 mm 0.00 in0.0 mm
12:19 PM 73.7°F23.2°C 65.8°F18.8°C 76% 5.1 mph SSW8.2 kmh SSW 13.0 mph20.9 kmh 29.84 in1010.5 mb 0.00 in0.0 mm 0.00 in0.0 mm 0.00 in0.0 mm
12:24 PM 73.8°F23.2°C 65.9°F18.8°C 76% 3.7 mph S6.0 kmh S 14.0 mph22.5 kmh 29.84 in1010.5 mb 0.00 in0.0 mm 0.00 in0.0 mm 0.00 in0.0 mm
12:29 PM 74.0°F23.3°C 65.3°F18.5°C 74% 4.9 mph S7.9 kmh S 16.0 mph25.7 kmh 29.83 in1010.2 mb 0.00 in0.0 mm 0.00 in0.0 mm 0.00 in0.0 mm
12:34 PM 74.1°F23.4°C 65.8°F18.8°C 75% 5.0 mph SSW8.0 kmh SSW 16.0 mph25.7 kmh 29.84 in1010.5 mb 0.00 in0.0 mm 0.00 in0.0 mm 0.00 in0.0 mm
12:39 PM 74.0°F23.3°C 65.6°F18.7°C 75% 3.0 mph S4.8 kmh S 18.0 mph29.0 kmh 29.84 in1010.5 mb 0.00 in0.0 mm 0.00 in0.0 mm 0.00 in0.0 mm
12:44 PM 74.2°F23.4°C 65.9°F18.8°C 75% 5.1 mph SSW8.2 kmh SSW 18.0 mph29.0 kmh 29.83 in1010.2 mb 0.00 in0.0 mm 0.00 in0.0 mm 0.00 in0.0 mm
12:49 PM 74.2°F23.4°C 65.9°F18.8°C 75% 4.5 mph SSW7.2 kmh SSW 18.0 mph29.0 kmh 29.83 in1010.2 mb 0.00 in0.0 mm 0.00 in0.0 mm 0.00 in0.0 mm
12:54 PM 74.2°F23.4°C 65.9°F18.8°C 75% 3.9 mph SSW6.3 kmh SSW 18.0 mph29.0 kmh 29.82 in1009.8 mb 0.00 in0.0 mm 0.00 in0.0 mm 0.00 in0.0 mm
12:59 PM 74.3°F23.5°C 65.9°F18.8°C 75% 3.9 mph SSE6.3 kmh SSE 18.0 mph29.0 kmh 29.82 in1009.8 mb 0.00 in0.0 mm 0.00 in0.0 mm 0.00 in0.0 mm
01:04 PM 74.4°F23.6°C 66.0°F18.9°C 75% 3.5 mph S5.6 kmh S 24.0 mph38.6 kmh 29.81 in1009.5 mb 0.00 in0.0 mm 0.00 in0.0 mm 0.00 in0.0 mm
01:09 PM 74.5°F23.6°C 66.2°F19.0°C 75% 4.5 mph S7.2 kmh S 24.0 mph38.6 kmh 29.80 in1009.1 mb 0.00 in0.0 mm 0.00 in0.0 mm 0.00 in0.0 mm
01:14 PM 74.4°F23.6°C 65.7°F18.7°C 74% 5.2 mph S8.4 kmh S 24.0 mph38.6 kmh 29.80 in1009.1 mb 0.00 in0.0 mm 0.00 in0.0 mm 0.00 in0.0 mm
01:18 PM 74.4°F23.6°C 66.1°F18.9°C 75% 5.7 mph SSW9.2 kmh SSW 24.0 mph38.6 kmh 29.80 in1009.1 mb 0.00 in0.0 mm 0.00 in0.0 mm 0.00 in0.0 mm
01:23 PM 74.4°F23.6°C 65.7°F18.7°C 74% 5.3 mph S8.5 kmh S 13.0 mph20.9 kmh 29.79 in1008.8 mb 0.00 in0.0 mm 0.00 in0.0 mm 0.00 in0.0 mm
01:28 PM 74.4°F23.6°C 65.7°F18.7°C 74% 2.9 mph S4.7 kmh S 13.0 mph20.9 kmh 29.78 in1008.5 mb 0.00 in0.0 mm 0.00 in0.0 mm 0.00 in0.0 mm
01:33 PM 74.4°F23.6°C 65.7°F18.7°C 74% 3.3 mph S5.3 kmh S 13.0 mph20.9 kmh 29.78 in1008.5 mb 0.00 in0.0 mm 0.00 in0.0 mm 0.00 in0.0 mm
01:38 PM 74.5°F23.6°C 65.8°F18.8°C 74% 2.8 mph S4.5 kmh S 13.0 mph20.9 kmh 29.78 in1008.5 mb 0.00 in0.0 mm 0.00 in0.0 mm 0.00 in0.0 mm
01:43 PM 74.7°F23.7°C 65.9°F18.8°C 74% 3.6 mph S5.8 kmh S 11.0 mph17.7 kmh 29.77 in1008.1 mb 0.00 in0.0 mm 0.00 in0.0 mm 0.00 in0.0 mm
01:48 PM 75.0°F23.9°C 66.1°F18.9°C 74% 2.2 mph S3.5 kmh S 11.0 mph17.7 kmh 29.77 in1008.1 mb 0.00 in0.0 mm 0.00 in0.0 mm 0.00 in0.0 mm
01:53 PM 75.1°F23.9°C 65.9°F18.8°C 73% 3.0 mph SSW4.8 kmh SSW 11.0 mph17.7 kmh 29.77 in1008.1 mb 0.00 in0.0 mm 0.00 in0.0 mm 0.00 in0.0 mm
01:58 PM 75.2°F24.0°C 65.6°F18.7°C 72% 5.3 mph SSE8.5 kmh SSE 12.0 mph19.3 kmh 29.76 in1007.8 mb 0.00 in0.0 mm 0.00 in0.0 mm 0.00 in0.0 mm
02:03 PM 75.1°F23.9°C 66.0°F18.9°C 73% 1.1 mph SSE1.8 kmh SSE 12.0 mph19.3 kmh 29.76 in1007.8 mb 0.00 in0.0 mm 0.00 in0.0 mm 0.00 in0.0 mm
02:08 PM 74.8°F23.8°C 65.7°F18.7°C 73% 2.8 mph S4.5 kmh S 12.0 mph19.3 kmh 29.76 in1007.8 mb 0.00 in0.0 mm 0.00 in0.0 mm 0.00 in0.0 mm
02:13 PM 74.6°F23.7°C 65.5°F18.6°C 73% 2.4 mph S3.9 kmh S 12.0 mph19.3 kmh 29.75 in1007.5 mb 0.00 in0.0 mm 0.00 in0.0 mm 0.00 in0.0 mm
02:18 PM 74.4°F23.6°C 65.7°F18.7°C 74% 4.0 mph S6.4 kmh S 11.0 mph17.7 kmh 29.75 in1007.5 mb 0.00 in0.0 mm 0.00 in0.0 mm 0.00 in0.0 mm
02:23 PM 74.1°F23.4°C 65.8°F18.8°C 75% 2.0 mph SSE3.2 kmh SSE 11.0 mph17.7 kmh 29.75 in1007.5 mb 0.00 in0.0 mm 0.00 in0.0 mm 0.00 in0.0 mm
02:28 PM 73.8°F23.2°C 65.9°F18.8°C 76% 1.8 mph SSE2.9 kmh SSE 11.0 mph17.7 kmh 29.75 in1007.5 mb 0.00 in0.0 mm 0.00 in0.0 mm 0.00 in0.0 mm
02:33 PM 73.4°F23.0°C 66.5°F19.2°C 79% 2.5 mph SW4.0 kmh SW 11.0 mph17.7 kmh 29.77 in1008.1 mb 0.01 in0.3 mm 0.12 in3.0 mm 0.01 in0.3 mm
02:38 PM 71.7°F22.1°C 66.6°F19.2°C 84% 3.2 mph SW5.1 kmh SW 12.0 mph19.3 kmh 29.77 in1008.1 mb 0.10 in2.5 mm 1.08 in27.4 mm 0.10 in2.5 mm
02:43 PM 70.2°F21.2°C 66.5°F19.2°C 88% 5.3 mph WSW8.5 kmh WSW 12.0 mph19.3 kmh 29.78 in1008.5 mb 0.11 in2.8 mm 0.12 in3.0 mm 0.11 in2.8 mm
02:48 PM 69.3°F20.7°C 66.5°F19.2°C 91% 4.8 mph WNW7.7 kmh WNW 13.0 mph20.9 kmh 29.79 in1008.8 mb 0.14 in3.6 mm 0.36 in9.1 mm 0.14 in3.6 mm
02:53 PM 67.3°F19.6°C 63.9°F17.7°C 89% 7.2 mph WNW11.6 kmh WNW 13.0 mph20.9 kmh 29.80 in1009.1 mb 0.15 in3.8 mm 0.12 in3.0 mm 0.15 in3.8 mm
02:58 PM 66.1°F18.9°C 63.4°F17.4°C 91% 3.7 mph NW6.0 kmh NW 13.0 mph20.9 kmh 29.80 in1009.1 mb 0.16 in4.1 mm 0.12 in3.0 mm 0.16 in4.1 mm
03:03 PM 65.5°F18.6°C 63.1°F17.3°C 92% 3.1 mph WNW5.0 kmh WNW 13.0 mph20.9 kmh 29.80 in1009.1 mb 0.16 in4.1 mm 0.00 in0.0 mm 0.16 in4.1 mm
03:08 PM 65.3°F18.5°C 62.9°F17.2°C 92% 4.2 mph WNW6.8 kmh WNW 13.0 mph20.9 kmh 29.80 in1009.1 mb 0.16 in4.1 mm 0.00 in0.0 mm 0.16 in4.1 mm
03:13 PM 65.2°F18.4°C 62.8°F17.1°C 92% 3.8 mph WNW6.1 kmh WNW 12.0 mph19.3 kmh 29.80 in1009.1 mb 0.16 in4.1 mm 0.00 in0.0 mm 0.16 in4.1 mm
03:18 PM 65.1°F18.4°C 63.0°F17.2°C 93% 3.0 mph WNW4.8 kmh WNW 12.0 mph19.3 kmh 29.80 in1009.1 mb 0.16 in4.1 mm 0.00 in0.0 mm 0.16 in4.1 mm
03:23 PM 65.0°F18.3°C 62.9°F17.2°C 93% 3.4 mph WNW5.5 kmh WNW 12.0 mph19.3 kmh 29.81 in1009.5 mb 0.16 in4.1 mm 0.00 in0.0 mm 0.16 in4.1 mm
03:28 PM 64.9°F18.3°C 62.8°F17.1°C 93% 2.0 mph W3.2 kmh W 12.0 mph19.3 kmh 29.81 in1009.5 mb 0.16 in4.1 mm 0.00 in0.0 mm 0.16 in4.1 mm
03:33 PM 64.9°F18.3°C 63.1°F17.3°C 94% 2.2 mph W3.5 kmh W 8.0 mph12.9 kmh 29.81 in1009.5 mb 0.17 in4.3 mm 0.12 in3.0 mm 0.18 in4.6 mm
03:38 PM 64.8°F18.2°C 63.0°F17.2°C 94% 1.0 mph WSW1.6 kmh WSW 8.0 mph12.9 kmh 29.82 in1009.8 mb 0.08 in2.0 mm 0.00 in0.0 mm 0.18 in4.6 mm
03:43 PM 64.8°F18.2°C 63.0°F17.2°C 94% Calm Calm 6.0 mph9.7 kmh 29.81 in1009.5 mb 0.07 in1.8 mm 0.00 in0.0 mm 0.18 in4.6 mm
03:48 PM 64.7°F18.2°C 62.9°F17.2°C 94% 1.2 mph WSW1.9 kmh WSW 6.0 mph9.7 kmh 29.81 in1009.5 mb 0.04 in1.0 mm 0.00 in0.0 mm 0.18 in4.6 mm
03:53 PM 64.7°F18.2°C 62.9°F17.2°C 94% 1.6 mph WSW2.6 kmh WSW 4.0 mph6.4 kmh 29.81 in1009.5 mb 0.03 in0.8 mm 0.00 in0.0 mm 0.18 in4.6 mm
03:58 PM 64.7°F18.2°C 62.9°F17.2°C 94% 1.1 mph WSW1.8 kmh WSW 4.0 mph6.4 kmh 29.81 in1009.5 mb 0.02 in0.5 mm 0.00 in0.0 mm 0.18 in4.6 mm
04:03 PM 64.7°F18.2°C 62.9°F17.2°C 94% 1.0 mph WSW1.6 kmh WSW 4.0 mph6.4 kmh 29.81 in1009.5 mb 0.02 in0.5 mm 0.00 in0.0 mm 0.18 in4.6 mm
04:08 PM 64.7°F18.2°C 63.2°F17.3°C 95% Calm Calm 3.0 mph4.8 kmh 29.81 in1009.5 mb 0.03 in0.8 mm 0.12 in3.0 mm 0.19 in4.8 mm
04:13 PM 64.7°F18.2°C 63.2°F17.3°C 95% 1.4 mph SE2.3 kmh SE 2.0 mph3.2 kmh 29.80 in1009.1 mb 0.03 in0.8 mm 0.00 in0.0 mm 0.19 in4.8 mm
04:18 PM 64.7°F18.2°C 63.2°F17.3°C 95% 1.0 mph SE1.6 kmh SE 2.0 mph3.2 kmh 29.80 in1009.1 mb 0.03 in0.8 mm 0.00 in0.0 mm 0.19 in4.8 mm
04:23 PM 64.5°F18.1°C 63.0°F17.2°C 95% 1.0 mph SW1.6 kmh SW 3.0 mph4.8 kmh 29.80 in1009.1 mb 0.03 in0.8 mm 0.00 in0.0 mm 0.19 in4.8 mm
04:28 PM 64.5°F18.1°C 63.3°F17.4°C 96% 2.2 mph SE3.5 kmh SE 4.0 mph6.4 kmh 29.79 in1008.8 mb 0.03 in0.8 mm 0.00 in0.0 mm 0.19 in4.8 mm
04:33 PM 64.4°F18.0°C 63.2°F17.3°C 96% 2.4 mph SE3.9 kmh SE 5.0 mph8.0 kmh 29.78 in1008.5 mb 0.01 in0.3 mm 0.00 in0.0 mm 0.19 in4.8 mm
04:38 PM 64.3°F17.9°C 63.1°F17.3°C 96% 4.4 mph SE7.1 kmh SE 9.0 mph14.5 kmh 29.77 in1008.1 mb 0.01 in0.3 mm 0.00 in0.0 mm 0.19 in4.8 mm
04:43 PM 64.2°F17.9°C 63.0°F17.2°C 96% 3.2 mph SE5.1 kmh SE 9.0 mph14.5 kmh 29.77 in1008.1 mb 0.01 in0.3 mm 0.00 in0.0 mm 0.19 in4.8 mm
04:48 PM 64.1°F17.8°C 62.9°F17.2°C 96% 4.1 mph SE6.6 kmh SE 9.0 mph14.5 kmh 29.77 in1008.1 mb 0.01 in0.3 mm 0.00 in0.0 mm 0.19 in4.8 mm
04:53 PM 64.1°F17.8°C 62.9°F17.2°C 96% 2.8 mph SE4.5 kmh SE 9.0 mph14.5 kmh 29.77 in1008.1 mb 0.01 in0.3 mm 0.00 in0.0 mm 0.19 in4.8 mm
04:58 PM 64.0°F17.8°C 62.8°F17.1°C 96% 3.9 mph SE6.3 kmh SE 8.0 mph12.9 kmh 29.75 in1007.5 mb 0.02 in0.5 mm 0.12 in3.0 mm 0.20 in5.1 mm
05:03 PM 63.9°F17.7°C 62.7°F17.1°C 96% 3.1 mph SSE5.0 kmh SSE 8.0 mph12.9 kmh 29.76 in1007.8 mb 0.02 in0.5 mm 0.00 in0.0 mm 0.20 in5.1 mm
05:08 PM 63.9°F17.7°C 62.7°F17.1°C 96% 1.0 mph SE1.6 kmh SE 8.0 mph12.9 kmh 29.77 in1008.1 mb 0.01 in0.3 mm 0.00 in0.0 mm 0.20 in5.1 mm
05:13 PM 63.8°F17.7°C 62.6°F17.0°C 96% 1.6 mph SSE2.6 kmh SSE 8.0 mph12.9 kmh 29.77 in1008.1 mb 0.01 in0.3 mm 0.00 in0.0 mm 0.20 in5.1 mm
05:18 PM 63.6°F17.6°C 62.4°F16.9°C 96% 3.4 mph SE5.5 kmh SE 7.0 mph11.3 kmh 29.77 in1008.1 mb 0.01 in0.3 mm 0.00 in0.0 mm 0.20 in5.1 mm
05:23 PM 63.6°F17.6°C 62.4°F16.9°C 96% 2.7 mph SE4.3 kmh SE 7.0 mph11.3 kmh 29.77 in1008.1 mb 0.01 in0.3 mm 0.00 in0.0 mm 0.20 in5.1 mm
05:28 PM 63.5°F17.5°C 62.0°F16.7°C 95% 2.3 mph SE3.7 kmh SE 7.0 mph11.3 kmh 29.77 in1008.1 mb 0.01 in0.3 mm 0.00 in0.0 mm 0.20 in5.1 mm
05:33 PM 63.5°F17.5°C 62.0°F16.7°C 95% 3.4 mph SE5.5 kmh SE 7.0 mph11.3 kmh 29.76 in1007.8 mb 0.01 in0.3 mm 0.00 in0.0 mm 0.20 in5.1 mm
05:39 PM 63.4°F17.4°C 62.2°F16.8°C 96% 2.7 mph SSE4.3 kmh SSE 7.0 mph11.3 kmh 29.77 in1008.1 mb 0.01 in0.3 mm 0.00 in0.0 mm 0.20 in5.1 mm
05:44 PM 63.4°F17.4°C 62.2°F16.8°C 96% 2.3 mph SE3.7 kmh SE 7.0 mph11.3 kmh 29.76 in1007.8 mb 0.01 in0.3 mm 0.00 in0.0 mm 0.20 in5.1 mm
05:48 PM 63.4°F17.4°C 62.2°F16.8°C 96% 1.2 mph S1.9 kmh S 7.0 mph11.3 kmh 29.77 in1008.1 mb 0.01 in0.3 mm 0.00 in0.0 mm 0.20 in5.1 mm
05:54 PM 63.3°F17.4°C 62.1°F16.7°C 96% 2.1 mph SSE3.4 kmh SSE 8.0 mph12.9 kmh 29.76 in1007.8 mb 0.01 in0.3 mm 0.00 in0.0 mm 0.20 in5.1 mm
05:59 PM 63.3°F17.4°C 62.1°F16.7°C 96% 3.7 mph SE6.0 kmh SE 9.0 mph14.5 kmh 29.75 in1007.5 mb 0.00 in0.0 mm 0.00 in0.0 mm 0.20 in5.1 mm
06:04 PM 63.3°F17.4°C 62.1°F16.7°C 96% 4.2 mph SSE6.8 kmh SSE 9.0 mph14.5 kmh 29.75 in1007.5 mb 0.00 in0.0 mm 0.00 in0.0 mm 0.20 in5.1 mm
06:09 PM 63.3°F17.4°C 62.1°F16.7°C 96% 4.2 mph SSE6.8 kmh SSE 14.0 mph22.5 kmh 29.75 in1007.5 mb 0.00 in0.0 mm 0.00 in0.0 mm 0.20 in5.1 mm
06:14 PM 63.3°F17.4°C 62.1°F16.7°C 96% 5.7 mph SE9.2 kmh SE 14.0 mph22.5 kmh 29.75 in1007.5 mb 0.00 in0.0 mm 0.00 in0.0 mm 0.20 in5.1 mm
06:18 PM 63.3°F17.4°C 62.1°F16.7°C 96% 3.4 mph SSE5.5 kmh SSE 14.0 mph22.5 kmh 29.75 in1007.5 mb 0.00 in0.0 mm 0.00 in0.0 mm 0.20 in5.1 mm
06:24 PM 63.3°F17.4°C 62.1°F16.7°C 96% Calm Calm 11.0 mph17.7 kmh 29.76 in1007.8 mb 0.00 in0.0 mm 0.00 in0.0 mm 0.20 in5.1 mm
06:29 PM 63.3°F17.4°C 62.1°F16.7°C 96% 1.5 mph S2.4 kmh S 11.0 mph17.7 kmh 29.77 in1008.1 mb 0.00 in0.0 mm 0.00 in0.0 mm 0.20 in5.1 mm
06:34 PM 63.3°F17.4°C 62.4°F16.9°C 97% 2.5 mph SE4.0 kmh SE 11.0 mph17.7 kmh 29.77 in1008.1 mb 0.00 in0.0 mm 0.00 in0.0 mm 0.20 in5.1 mm
06:39 PM 63.3°F17.4°C 62.4°F16.9°C 97% 1.5 mph WSW2.4 kmh WSW 5.0 mph8.0 kmh 29.79 in1008.8 mb 0.00 in0.0 mm 0.00 in0.0 mm 0.20 in5.1 mm
06:44 PM 63.3°F17.4°C 62.4°F16.9°C 97% 2.5 mph SW4.0 kmh SW 6.0 mph9.7 kmh 29.79 in1008.8 mb 0.00 in0.0 mm 0.00 in0.0 mm 0.20 in5.1 mm
06:49 PM 63.4°F17.4°C 62.5°F16.9°C 97% 2.1 mph WSW3.4 kmh WSW 6.0 mph9.7 kmh 29.79 in1008.8 mb 0.00 in0.0 mm 0.00 in0.0 mm 0.20 in5.1 mm
06:54 PM 63.4°F17.4°C 62.5°F16.9°C 97% 2.7 mph SSW4.3 kmh SSW 6.0 mph9.7 kmh 29.79 in1008.8 mb 0.00 in0.0 mm 0.00 in0.0 mm 0.20 in5.1 mm
06:59 PM 63.3°F17.4°C 62.4°F16.9°C 97% 1.0 mph SE1.6 kmh SE 6.0 mph9.7 kmh 29.78 in1008.5 mb 0.00 in0.0 mm 0.00 in0.0 mm 0.20 in5.1 mm
07:04 PM 63.3°F17.4°C 62.4°F16.9°C 97% 1.7 mph WSW2.7 kmh WSW 6.0 mph9.7 kmh 29.79 in1008.8 mb 0.00 in0.0 mm 0.00 in0.0 mm 0.20 in5.1 mm
07:09 PM 63.3°F17.4°C 62.4°F16.9°C 97% 2.0 mph W3.2 kmh W 6.0 mph9.7 kmh 29.81 in1009.5 mb 0.00 in0.0 mm 0.00 in0.0 mm 0.20 in5.1 mm
07:14 PM 63.4°F17.4°C 62.5°F16.9°C 97% 3.1 mph W5.0 kmh W 8.0 mph12.9 kmh 29.82 in1009.8 mb 0.00 in0.0 mm 0.00 in0.0 mm 0.20 in5.1 mm
07:17 PM 63.5°F17.5°C 62.6°F17.0°C 97% 2.0 mph W3.2 kmh W 8.0 mph12.9 kmh 29.82 in1009.8 mb 0.00 in0.0 mm 0.00 in0.0 mm 0.20 in5.1 mm
07:23 PM 63.5°F17.5°C 62.6°F17.0°C 97% 1.7 mph WSW2.7 kmh WSW 8.0 mph12.9 kmh 29.83 in1010.2 mb 0.00 in0.0 mm 0.00 in0.0 mm 0.20 in5.1 mm
07:27 PM 63.5°F17.5°C 62.6°F17.0°C 97% 1.5 mph ESE2.4 kmh ESE 8.0 mph12.9 kmh 29.81 in1009.5 mb 0.00 in0.0 mm 0.00 in0.0 mm 0.20 in5.1 mm
07:33 PM 63.5°F17.5°C 62.6°F17.0°C 97% 1.8 mph SW2.9 kmh SW 7.0 mph11.3 kmh 29.82 in1009.8 mb 0.00 in0.0 mm 0.00 in0.0 mm 0.20 in5.1 mm
07:38 PM 63.5°F17.5°C 62.6°F17.0°C 97% 2.0 mph SW3.2 kmh SW 5.0 mph8.0 kmh 29.82 in1009.8 mb 0.00 in0.0 mm 0.00 in0.0 mm 0.20 in5.1 mm
07:43 PM 63.5°F17.5°C 62.6°F17.0°C 97% 1.8 mph SE2.9 kmh SE 5.0 mph8.0 kmh 29.80 in1009.1 mb 0.00 in0.0 mm 0.00 in0.0 mm 0.20 in5.1 mm
07:48 PM 63.5°F17.5°C 62.6°F17.0°C 97% 1.9 mph SE3.1 kmh SE 5.0 mph8.0 kmh 29.81 in1009.5 mb 0.00 in0.0 mm 0.00 in0.0 mm 0.20 in5.1 mm
07:53 PM 63.4°F17.4°C 62.5°F16.9°C 97% 1.0 mph SSW1.6 kmh SSW 5.0 mph8.0 kmh 29.81 in1009.5 mb 0.00 in0.0 mm 0.00 in0.0 mm 0.20 in5.1 mm
07:58 PM 63.4°F17.4°C 62.5°F16.9°C 97% 2.2 mph WSW3.5 kmh WSW 5.0 mph8.0 kmh 29.82 in1009.8 mb 0.00 in0.0 mm 0.00 in0.0 mm 0.20 in5.1 mm
08:03 PM 63.5°F17.5°C 62.6°F17.0°C 97% 1.3 mph WSW2.1 kmh WSW 5.0 mph8.0 kmh 29.83 in1010.2 mb 0.00 in0.0 mm 0.00 in0.0 mm 0.20 in5.1 mm
08:08 PM 63.5°F17.5°C 62.6°F17.0°C 97% 1.5 mph SW2.4 kmh SW 5.0 mph8.0 kmh 29.82 in1009.8 mb 0.00 in0.0 mm 0.00 in0.0 mm 0.20 in5.1 mm
08:13 PM 63.5°F17.5°C 62.6°F17.0°C 97% 1.6 mph SSE2.6 kmh SSE 5.0 mph8.0 kmh 29.81 in1009.5 mb 0.00 in0.0 mm 0.00 in0.0 mm 0.20 in5.1 mm
08:18 PM 63.5°F17.5°C 62.6°F17.0°C 97% 1.8 mph SW2.9 kmh SW 5.0 mph8.0 kmh 29.83 in1010.2 mb 0.00 in0.0 mm 0.00 in0.0 mm 0.20 in5.1 mm
08:23 PM 63.5°F17.5°C 62.6°F17.0°C 97% 1.0 mph SW1.6 kmh SW 4.0 mph6.4 kmh 29.83 in1010.2 mb 0.00 in0.0 mm 0.00 in0.0 mm 0.20 in5.1 mm
08:28 PM 63.5°F17.5°C 62.6°F17.0°C 97% 3.5 mph SW5.6 kmh SW 8.0 mph12.9 kmh 29.83 in1010.2 mb 0.00 in0.0 mm 0.00 in0.0 mm 0.20 in5.1 mm
08:33 PM 63.5°F17.5°C 62.6°F17.0°C 97% 1.6 mph WSW2.6 kmh WSW 8.0 mph12.9 kmh 29.83 in1010.2 mb 0.00 in0.0 mm 0.00 in0.0 mm 0.20 in5.1 mm
08:38 PM 63.5°F17.5°C 62.6°F17.0°C 97% 2.0 mph WSW3.2 kmh WSW 8.0 mph12.9 kmh 29.84 in1010.5 mb 0.00 in0.0 mm 0.00 in0.0 mm 0.20 in5.1 mm
08:43 PM 63.5°F17.5°C 62.6°F17.0°C 97% 1.3 mph SW2.1 kmh SW 8.0 mph12.9 kmh 29.83 in1010.2 mb 0.00 in0.0 mm 0.00 in0.0 mm 0.20 in5.1 mm
08:48 PM 63.5°F17.5°C 62.6°F17.0°C 97% 2.3 mph SW3.7 kmh SW 5.0 mph8.0 kmh 29.84 in1010.5 mb 0.00 in0.0 mm 0.00 in0.0 mm 0.20 in5.1 mm
08:53 PM 63.6°F17.6°C 62.7°F17.1°C 97% 1.3 mph SW2.1 kmh SW 5.0 mph8.0 kmh 29.83 in1010.2 mb 0.00 in0.0 mm 0.00 in0.0 mm 0.20 in5.1 mm
08:58 PM 63.6°F17.6°C 62.7°F17.1°C 97% 1.3 mph SW2.1 kmh SW 5.0 mph8.0 kmh 29.83 in1010.2 mb 0.00 in0.0 mm 0.00 in0.0 mm 0.20 in5.1 mm
09:03 PM 63.6°F17.6°C 62.7°F17.1°C 97% 1.0 mph SE1.6 kmh SE 5.0 mph8.0 kmh 29.83 in1010.2 mb 0.00 in0.0 mm 0.00 in0.0 mm 0.20 in5.1 mm
09:08 PM 63.5°F17.5°C 62.6°F17.0°C 97% 1.7 mph SW2.7 kmh SW 5.0 mph8.0 kmh 29.84 in1010.5 mb 0.00 in0.0 mm 0.00 in0.0 mm 0.20 in5.1 mm
09:13 PM 63.5°F17.5°C 62.6°F17.0°C 97% 1.5 mph SW2.4 kmh SW 4.0 mph6.4 kmh 29.84 in1010.5 mb 0.00 in0.0 mm 0.00 in0.0 mm 0.20 in5.1 mm
09:18 PM 63.5°F17.5°C 62.6°F17.0°C 97% 1.3 mph WSW2.1 kmh WSW 4.0 mph6.4 kmh 29.84 in1010.5 mb 0.00 in0.0 mm 0.00 in0.0 mm 0.20 in5.1 mm
09:23 PM 63.5°F17.5°C 62.6°F17.0°C 97% 1.0 mph WSW1.6 kmh WSW 4.0 mph6.4 kmh 29.84 in1010.5 mb 0.00 in0.0 mm 0.00 in0.0 mm 0.20 in5.1 mm
09:28 PM 63.6°F17.6°C 62.7°F17.1°C 97% 2.0 mph WSW3.2 kmh WSW 3.0 mph4.8 kmh 29.84 in1010.5 mb 0.00 in0.0 mm 0.00 in0.0 mm 0.20 in5.1 mm
09:33 PM 63.6°F17.6°C 62.7°F17.1°C 97% 1.0 mph WSW1.6 kmh WSW 5.0 mph8.0 kmh 29.85 in1010.8 mb 0.00 in0.0 mm 0.00 in0.0 mm 0.20 in5.1 mm
09:38 PM 63.7°F17.6°C 62.8°F17.1°C 97% 2.4 mph WSW3.9 kmh WSW 5.0 mph8.0 kmh 29.85 in1010.8 mb 0.00 in0.0 mm 0.00 in0.0 mm 0.20 in5.1 mm
09:43 PM 63.7°F17.6°C 62.8°F17.1°C 97% 2.8 mph SW4.5 kmh SW 8.0 mph12.9 kmh 29.85 in1010.8 mb 0.00 in0.0 mm 0.00 in0.0 mm 0.20 in5.1 mm
09:48 PM 63.8°F17.7°C 62.9°F17.2°C 97% 2.1 mph WSW3.4 kmh WSW 8.0 mph12.9 kmh 29.85 in1010.8 mb 0.00 in0.0 mm 0.00 in0.0 mm 0.20 in5.1 mm
09:53 PM 63.8°F17.7°C 62.9°F17.2°C 97% 1.5 mph S2.4 kmh S 8.0 mph12.9 kmh 29.84 in1010.5 mb 0.00 in0.0 mm 0.00 in0.0 mm 0.20 in5.1 mm
09:58 PM 63.8°F17.7°C 62.9°F17.2°C 97% 2.8 mph SW4.5 kmh SW 8.0 mph12.9 kmh 29.84 in1010.5 mb 0.00 in0.0 mm 0.00 in0.0 mm 0.20 in5.1 mm
10:03 PM 63.8°F17.7°C 62.9°F17.2°C 97% 2.3 mph SW3.7 kmh SW 6.0 mph9.7 kmh 29.85 in1010.8 mb 0.00 in0.0 mm 0.00 in0.0 mm 0.20 in5.1 mm
10:08 PM 63.7°F17.6°C 62.8°F17.1°C 97% 2.6 mph SW4.2 kmh SW 6.0 mph9.7 kmh 29.86 in1011.2 mb 0.00 in0.0 mm 0.00 in0.0 mm 0.20 in5.1 mm
10:13 PM 63.7°F17.6°C 62.8°F17.1°C 97% 2.9 mph SW4.7 kmh SW 6.0 mph9.7 kmh 29.86 in1011.2 mb 0.00 in0.0 mm 0.00 in0.0 mm 0.20 in5.1 mm
10:18 PM 63.7°F17.6°C 62.8°F17.1°C 97% 2.4 mph SW3.9 kmh SW 6.0 mph9.7 kmh 29.86 in1011.2 mb 0.00 in0.0 mm 0.00 in0.0 mm 0.20 in5.1 mm
10:23 PM 63.7°F17.6°C 62.8°F17.1°C 97% 1.1 mph SSW1.8 kmh SSW 6.0 mph9.7 kmh 29.85 in1010.8 mb 0.00 in0.0 mm 0.00 in0.0 mm 0.20 in5.1 mm
10:28 PM 63.6°F17.6°C 62.7°F17.1°C 97% 1.3 mph SSW2.1 kmh SSW 6.0 mph9.7 kmh 29.85 in1010.8 mb 0.00 in0.0 mm 0.00 in0.0 mm 0.20 in5.1 mm
10:33 PM 63.5°F17.5°C 62.6°F17.0°C 97% 1.7 mph SSW2.7 kmh SSW 5.0 mph8.0 kmh 29.84 in1010.5 mb 0.00 in0.0 mm 0.00 in0.0 mm 0.20 in5.1 mm
10:38 PM 63.4°F17.4°C 62.5°F16.9°C 97% 2.2 mph SW3.5 kmh SW 5.0 mph8.0 kmh 29.84 in1010.5 mb 0.00 in0.0 mm 0.00 in0.0 mm 0.20 in5.1 mm
10:43 PM 63.4°F17.4°C 62.5°F16.9°C 97% 2.4 mph SW3.9 kmh SW 5.0 mph8.0 kmh 29.84 in1010.5 mb 0.00 in0.0 mm 0.00 in0.0 mm 0.20 in5.1 mm
10:48 PM 63.3°F17.4°C 62.4°F16.9°C 97% 2.0 mph SW3.2 kmh SW 5.0 mph8.0 kmh 29.84 in1010.5 mb 0.00 in0.0 mm 0.00 in0.0 mm 0.20 in5.1 mm
10:53 PM 63.3°F17.4°C 62.4°F16.9°C 97% 1.2 mph SW1.9 kmh SW 5.0 mph8.0 kmh 29.84 in1010.5 mb 0.00 in0.0 mm 0.00 in0.0 mm 0.20 in5.1 mm
10:58 PM 63.3°F17.4°C 62.4°F16.9°C 97% 2.5 mph SSW4.0 kmh SSW 8.0 mph12.9 kmh 29.85 in1010.8 mb 0.00 in0.0 mm 0.00 in0.0 mm 0.20 in5.1 mm
11:03 PM 63.2°F17.3°C 62.3°F16.8°C 97% Calm Calm 8.0 mph12.9 kmh 29.85 in1010.8 mb 0.00 in0.0 mm 0.00 in0.0 mm 0.19 in4.8 mm
11:08 PM 63.2°F17.3°C 62.3°F16.8°C 97% 2.4 mph SW3.9 kmh SW 8.0 mph12.9 kmh 29.85 in1010.8 mb 0.00 in0.0 mm 0.00 in0.0 mm 0.19 in4.8 mm
11:13 PM 63.2°F17.3°C 62.3°F16.8°C 97% 1.1 mph SW1.8 kmh SW 8.0 mph12.9 kmh 29.84 in1010.5 mb 0.00 in0.0 mm 0.00 in0.0 mm 0.19 in4.8 mm
11:18 PM 63.2°F17.3°C 62.3°F16.8°C 97% 3.3 mph SSW5.3 kmh SSW 6.0 mph9.7 kmh 29.83 in1010.2 mb 0.00 in0.0 mm 0.00 in0.0 mm 0.19 in4.8 mm
11:23 PM 63.2°F17.3°C 62.3°F16.8°C 97% 2.0 mph SW3.2 kmh SW 6.0 mph9.7 kmh 29.83 in1010.2 mb 0.00 in0.0 mm 0.00 in0.0 mm 0.19 in4.8 mm
11:28 PM 63.2°F17.3°C 62.3°F16.8°C 97% 2.6 mph SW4.2 kmh SW 6.0 mph9.7 kmh 29.83 in1010.2 mb 0.00 in0.0 mm 0.00 in0.0 mm 0.19 in4.8 mm
11:33 PM 63.1°F17.3°C 62.2°F16.8°C 97% 1.6 mph WSW2.6 kmh WSW 6.0 mph9.7 kmh 29.84 in1010.5 mb 0.00 in0.0 mm 0.00 in0.0 mm 0.19 in4.8 mm
11:38 PM 63.1°F17.3°C 62.2°F16.8°C 97% 1.8 mph SSW2.9 kmh SSW 6.0 mph9.7 kmh 29.84 in1010.5 mb 0.00 in0.0 mm 0.00 in0.0 mm 0.19 in4.8 mm
11:43 PM 63.1°F17.3°C 62.2°F16.8°C 97% 1.4 mph WSW2.3 kmh WSW 6.0 mph9.7 kmh 29.83 in1010.2 mb 0.00 in0.0 mm 0.00 in0.0 mm 0.19 in4.8 mm
11:48 PM 63.0°F17.2°C 62.1°F16.7°C 97% 1.6 mph WSW2.6 kmh WSW 6.0 mph9.7 kmh 29.83 in1010.2 mb 0.00 in0.0 mm 0.00 in0.0 mm 0.19 in4.8 mm
11:53 PM 63.0°F17.2°C 62.1°F16.7°C 97% 1.7 mph SW2.7 kmh SW 5.0 mph8.0 kmh 29.83 in1010.2 mb 0.00 in0.0 mm 0.00 in0.0 mm 0.19 in4.8 mm
11:58 PM 63.0°F17.2°C 62.1°F16.7°C 97% 2.4 mph SW3.9 kmh SW 5.0 mph8.0 kmh 29.82 in1009.8 mb 0.00 in0.0 mm 0.00 in0.0 mm 0.19 in4.8 mm